sensor_id;sensor_type;location;lat;lon;timestamp;P1;durP1;ratioP1;P2;durP2;ratioP2
61338;SDS011;47213;52.362;4.606;2023-09-12T00:04:24;45.20;;;32.20;;
61338;SDS011;47213;52.362;4.606;2023-09-12T00:09:24;47.10;;;34.40;;
61338;SDS011;47213;52.362;4.606;2023-09-12T00:14:24;47.10;;;34.40;;
61338;SDS011;47213;52.362;4.606;2023-09-12T00:19:24;46.10;;;34.50;;
61338;SDS011;47213;52.362;4.606;2023-09-12T00:24:24;46.10;;;34.50;;
61338;SDS011;47213;52.362;4.606;2023-09-12T00:29:25;51.40;;;35.00;;
61338;SDS011;47213;52.362;4.606;2023-09-12T00:34:25;51.40;;;35.00;;
61338;SDS011;47213;52.362;4.606;2023-09-12T00:39:25;47.40;;;35.30;;
61338;SDS011;47213;52.362;4.606;2023-09-12T00:44:25;47.40;;;35.30;;
61338;SDS011;47213;52.362;4.606;2023-09-12T00:49:25;44.00;;;32.20;;
61338;SDS011;47213;52.362;4.606;2023-09-12T00:59:25;40.50;;;30.20;;
61338;SDS011;47213;52.362;4.606;2023-09-12T01:14:25;43.00;;;32.10;;
61338;SDS011;47213;52.362;4.606;2023-09-12T01:24:32;49.10;;;34.50;;
61338;SDS011;47213;52.362;4.606;2023-09-12T01:29:25;49.50;;;35.50;;
61338;SDS011;47213;52.362;4.606;2023-09-12T01:44:27;54.40;;;36.60;;
61338;SDS011;47213;52.362;4.606;2023-09-12T01:54:26;62.70;;;41.50;;
61338;SDS011;47213;52.362;4.606;2023-09-12T01:59:25;62.30;;;40.50;;
61338;SDS011;47213;52.362;4.606;2023-09-12T02:14:25;63.60;;;40.60;;
61338;SDS011;47213;52.362;4.606;2023-09-12T02:19:25;68.20;;;43.20;;
61338;SDS011;47213;52.362;4.606;2023-09-12T02:34:25;70.80;;;44.70;;
61338;SDS011;47213;52.362;4.606;2023-09-12T02:39:25;75.90;;;46.60;;
61338;SDS011;47213;52.362;4.606;2023-09-12T02:59:25;69.00;;;43.90;;
61338;SDS011;47213;52.362;4.606;2023-09-12T03:19:25;58.90;;;40.20;;
61338;SDS011;47213;52.362;4.606;2023-09-12T03:29:25;56.50;;;39.00;;
61338;SDS011;47213;52.362;4.606;2023-09-12T03:34:25;56.50;;;39.00;;
61338;SDS011;47213;52.362;4.606;2023-09-12T03:44:25;52.80;;;37.70;;
61338;SDS011;47213;52.362;4.606;2023-09-12T04:04:25;49.40;;;35.40;;
61338;SDS011;47213;52.362;4.606;2023-09-12T04:09:25;48.50;;;34.30;;
61338;SDS011;47213;52.362;4.606;2023-09-12T04:14:25;48.50;;;34.30;;
61338;SDS011;47213;52.362;4.606;2023-09-12T04:19:25;49.50;;;35.00;;
61338;SDS011;47213;52.362;4.606;2023-09-12T04:24:25;49.50;;;35.00;;
61338;SDS011;47213;52.362;4.606;2023-09-12T04:29:25;45.40;;;32.90;;
61338;SDS011;47213;52.362;4.606;2023-09-12T04:34:25;45.40;;;32.90;;
61338;SDS011;47213;52.362;4.606;2023-09-12T04:44:25;49.00;;;33.80;;
61338;SDS011;47213;52.362;4.606;2023-09-12T04:49:25;48.40;;;34.10;;
61338;SDS011;47213;52.362;4.606;2023-09-12T04:59:25;50.90;;;34.70;;
61338;SDS011;47213;52.362;4.606;2023-09-12T05:14:25;54.60;;;35.00;;
61338;SDS011;47213;52.362;4.606;2023-09-12T05:19:25;54.70;;;34.90;;
61338;SDS011;47213;52.362;4.606;2023-09-12T05:29:25;60.10;;;36.30;;
61338;SDS011;47213;52.362;4.606;2023-09-12T05:34:25;60.10;;;36.30;;
61338;SDS011;47213;52.362;4.606;2023-09-12T05:44:25;57.60;;;35.40;;
61338;SDS011;47213;52.362;4.606;2023-09-12T05:59:25;60.50;;;35.90;;
61338;SDS011;47213;52.362;4.606;2023-09-12T06:04:25;60.50;;;35.90;;
61338;SDS011;47213;52.362;4.606;2023-09-12T06:09:25;63.40;;;35.60;;
61338;SDS011;47213;52.362;4.606;2023-09-12T06:14:25;63.40;;;35.60;;
61338;SDS011;47213;52.362;4.606;2023-09-12T06:19:25;65.90;;;35.80;;
61338;SDS011;47213;52.362;4.606;2023-09-12T06:29:25;69.40;;;36.30;;
61338;SDS011;47213;52.362;4.606;2023-09-12T06:34:25;69.40;;;36.30;;
61338;SDS011;47213;52.362;4.606;2023-09-12T06:49:26;77.40;;;38.20;;
61338;SDS011;47213;52.362;4.606;2023-09-12T06:54:26;77.40;;;38.20;;
61338;SDS011;47213;52.362;4.606;2023-09-12T07:09:26;82.80;;;40.20;;
61338;SDS011;47213;52.362;4.606;2023-09-12T07:14:26;82.80;;;40.20;;
61338;SDS011;47213;52.362;4.606;2023-09-12T07:24:27;83.90;;;40.00;;
61338;SDS011;47213;52.362;4.606;2023-09-12T07:39:26;85.90;;;40.60;;
61338;SDS011;47213;52.362;4.606;2023-09-12T07:44:27;85.90;;;40.60;;
61338;SDS011;47213;52.362;4.606;2023-09-12T07:49:26;90.20;;;41.90;;
61338;SDS011;47213;52.362;4.606;2023-09-12T07:54:26;90.20;;;41.90;;
61338;SDS011;47213;52.362;4.606;2023-09-12T07:59:26;90.80;;;41.70;;
61338;SDS011;47213;52.362;4.606;2023-09-12T08:04:26;90.80;;;41.70;;
61338;SDS011;47213;52.362;4.606;2023-09-12T08:14:26;98.90;;;42.70;;
61338;SDS011;47213;52.362;4.606;2023-09-12T08:19:26;82.60;;;39.80;;
61338;SDS011;47213;52.362;4.606;2023-09-12T08:24:26;82.60;;;39.80;;
61338;SDS011;47213;52.362;4.606;2023-09-12T08:29:28;75.30;;;37.70;;
61338;SDS011;47213;52.362;4.606;2023-09-12T08:34:26;75.30;;;37.70;;
61338;SDS011;47213;52.362;4.606;2023-09-12T08:39:27;62.90;;;34.70;;
61338;SDS011;47213;52.362;4.606;2023-09-12T08:44:26;62.90;;;34.70;;
61338;SDS011;47213;52.362;4.606;2023-09-12T08:54:26;47.80;;;28.40;;
61338;SDS011;47213;52.362;4.606;2023-09-12T08:59:27;36.80;;;24.40;;
61338;SDS011;47213;52.362;4.606;2023-09-12T09:04:28;36.80;;;24.40;;
61338;SDS011;47213;52.362;4.606;2023-09-12T09:09:26;34.10;;;21.70;;
61338;SDS011;47213;52.362;4.606;2023-09-12T09:24:26;30.60;;;20.20;;
61338;SDS011;47213;52.362;4.606;2023-09-12T09:29:27;27.40;;;17.50;;
61338;SDS011;47213;52.362;4.606;2023-09-12T09:44:26;25.70;;;15.60;;
61338;SDS011;47213;52.362;4.606;2023-09-12T09:49:26;24.10;;;15.10;;
61338;SDS011;47213;52.362;4.606;2023-09-12T09:54:26;24.10;;;15.10;;
61338;SDS011;47213;52.362;4.606;2023-09-12T09:59:27;22.90;;;14.50;;
61338;SDS011;47213;52.362;4.606;2023-09-12T10:04:27;22.90;;;14.50;;
61338;SDS011;47213;52.362;4.606;2023-09-12T10:09:27;18.70;;;11.30;;
61338;SDS011;47213;52.362;4.606;2023-09-12T10:19:32;17.10;;;10.60;;
61338;SDS011;47213;52.362;4.606;2023-09-12T10:24:27;17.10;;;10.60;;
61338;SDS011;47213;52.362;4.606;2023-09-12T10:29:26;18.40;;;9.90;;
61338;SDS011;47213;52.362;4.606;2023-09-12T10:34:27;18.40;;;9.90;;
61338;SDS011;47213;52.362;4.606;2023-09-12T10:39:27;19.10;;;8.30;;
61338;SDS011;47213;52.362;4.606;2023-09-12T10:44:28;19.10;;;8.30;;
61338;SDS011;47213;52.362;4.606;2023-09-12T10:49:27;15.40;;;7.60;;
61338;SDS011;47213;52.362;4.606;2023-09-12T10:54:42;15.40;;;7.60;;
61338;SDS011;47213;52.362;4.606;2023-09-12T10:59:26;14.70;;;7.40;;
61338;SDS011;47213;52.362;4.606;2023-09-12T11:09:27;15.00;;;6.40;;
61338;SDS011;47213;52.362;4.606;2023-09-12T11:14:26;15.00;;;6.40;;
61338;SDS011;47213;52.362;4.606;2023-09-12T11:19:26;11.00;;;5.50;;
61338;SDS011;47213;52.362;4.606;2023-09-12T11:24:26;11.00;;;5.50;;
61338;SDS011;47213;52.362;4.606;2023-09-12T11:29:36;9.40;;;3.20;;
61338;SDS011;47213;52.362;4.606;2023-09-12T11:34:27;9.40;;;3.20;;
61338;SDS011;47213;52.362;4.606;2023-09-12T11:39:29;7.70;;;2.80;;
61338;SDS011;47213;52.362;4.606;2023-09-12T11:44:28;7.70;;;2.80;;
61338;SDS011;47213;52.362;4.606;2023-09-12T11:49:27;7.60;;;2.50;;
61338;SDS011;47213;52.362;4.606;2023-09-12T11:54:26;7.60;;;2.50;;
61338;SDS011;47213;52.362;4.606;2023-09-12T11:59:26;8.10;;;2.50;;
61338;SDS011;47213;52.362;4.606;2023-09-12T12:04:28;8.10;;;2.50;;
61338;SDS011;47213;52.362;4.606;2023-09-12T12:09:27;8.80;;;3.20;;
61338;SDS011;47213;52.362;4.606;2023-09-12T12:14:26;8.80;;;3.20;;
61338;SDS011;47213;52.362;4.606;2023-09-12T12:19:26;10.00;;;3.90;;
61338;SDS011;47213;52.362;4.606;2023-09-12T12:29:26;9.70;;;4.50;;
61338;SDS011;47213;52.362;4.606;2023-09-12T12:34:27;9.70;;;4.50;;
61338;SDS011;47213;52.362;4.606;2023-09-12T12:44:34;10.40;;;4.60;;
61338;SDS011;47213;52.362;4.606;2023-09-12T12:49:27;10.00;;;4.50;;
61338;SDS011;47213;52.362;4.606;2023-09-12T12:54:31;10.00;;;4.50;;
61338;SDS011;47213;52.362;4.606;2023-09-12T13:04:27;10.90;;;4.40;;
61338;SDS011;47213;52.362;4.606;2023-09-12T13:09:27;9.60;;;4.00;;
61338;SDS011;47213;52.362;4.606;2023-09-12T13:14:27;9.60;;;4.00;;
61338;SDS011;47213;52.362;4.606;2023-09-12T13:19:27;8.40;;;3.60;;
61338;SDS011;47213;52.362;4.606;2023-09-12T13:24:27;8.40;;;3.60;;
61338;SDS011;47213;52.362;4.606;2023-09-12T13:29:27;9.10;;;3.60;;
61338;SDS011;47213;52.362;4.606;2023-09-12T13:34:27;9.10;;;3.60;;
61338;SDS011;47213;52.362;4.606;2023-09-12T13:39:27;8.80;;;3.80;;
61338;SDS011;47213;52.362;4.606;2023-09-12T13:44:27;8.80;;;3.80;;
61338;SDS011;47213;52.362;4.606;2023-09-12T13:54:27;7.60;;;3.40;;
61338;SDS011;47213;52.362;4.606;2023-09-12T13:59:27;8.40;;;4.00;;
61338;SDS011;47213;52.362;4.606;2023-09-12T14:09:27;11.00;;;4.90;;
61338;SDS011;47213;52.362;4.606;2023-09-12T14:14:27;11.00;;;4.90;;
61338;SDS011;47213;52.362;4.606;2023-09-12T14:19:27;9.40;;;4.80;;
61338;SDS011;47213;52.362;4.606;2023-09-12T14:24:27;9.40;;;4.80;;
61338;SDS011;47213;52.362;4.606;2023-09-12T14:29:27;12.40;;;5.50;;
61338;SDS011;47213;52.362;4.606;2023-09-12T14:34:27;12.40;;;5.50;;
61338;SDS011;47213;52.362;4.606;2023-09-12T14:39:27;9.90;;;4.70;;
61338;SDS011;47213;52.362;4.606;2023-09-12T14:44:27;9.90;;;4.70;;
61338;SDS011;47213;52.362;4.606;2023-09-12T14:49:27;10.90;;;4.80;;
61338;SDS011;47213;52.362;4.606;2023-09-12T14:54:27;10.90;;;4.80;;
61338;SDS011;47213;52.362;4.606;2023-09-12T14:59:27;9.10;;;4.20;;
61338;SDS011;47213;52.362;4.606;2023-09-12T15:04:27;9.10;;;4.20;;
61338;SDS011;47213;52.362;4.606;2023-09-12T15:09:27;8.60;;;4.30;;
61338;SDS011;47213;52.362;4.606;2023-09-12T15:14:27;8.60;;;4.30;;
61338;SDS011;47213;52.362;4.606;2023-09-12T15:19:27;9.30;;;4.30;;
61338;SDS011;47213;52.362;4.606;2023-09-12T15:24:27;9.30;;;4.30;;
61338;SDS011;47213;52.362;4.606;2023-09-12T15:29:27;8.40;;;4.10;;
61338;SDS011;47213;52.362;4.606;2023-09-12T15:39:27;8.90;;;4.40;;
61338;SDS011;47213;52.362;4.606;2023-09-12T15:44:27;8.90;;;4.40;;
61338;SDS011;47213;52.362;4.606;2023-09-12T15:49:27;7.90;;;4.00;;
61338;SDS011;47213;52.362;4.606;2023-09-12T15:59:27;10.50;;;4.90;;
61338;SDS011;47213;52.362;4.606;2023-09-12T16:04:27;10.50;;;4.90;;
61338;SDS011;47213;52.362;4.606;2023-09-12T16:09:27;9.40;;;5.00;;
61338;SDS011;47213;52.362;4.606;2023-09-12T16:19:27;9.10;;;4.60;;
61338;SDS011;47213;52.362;4.606;2023-09-12T16:29:27;8.90;;;5.10;;
61338;SDS011;47213;52.362;4.606;2023-09-12T16:34:27;8.90;;;5.10;;
61338;SDS011;47213;52.362;4.606;2023-09-12T16:39:27;9.10;;;4.00;;
61338;SDS011;47213;52.362;4.606;2023-09-12T16:49:27;9.20;;;4.30;;
61338;SDS011;47213;52.362;4.606;2023-09-12T16:59:27;11.00;;;5.60;;
61338;SDS011;47213;52.362;4.606;2023-09-12T17:04:27;11.00;;;5.60;;
61338;SDS011;47213;52.362;4.606;2023-09-12T17:09:27;10.20;;;5.10;;
61338;SDS011;47213;52.362;4.606;2023-09-12T17:19:28;8.60;;;4.80;;
61338;SDS011;47213;52.362;4.606;2023-09-12T17:29:27;10.50;;;5.70;;
61338;SDS011;47213;52.362;4.606;2023-09-12T17:44:27;11.20;;;5.40;;
61338;SDS011;47213;52.362;4.606;2023-09-12T17:49:27;10.80;;;5.00;;
61338;SDS011;47213;52.362;4.606;2023-09-12T17:54:27;10.80;;;5.00;;
61338;SDS011;47213;52.362;4.606;2023-09-12T17:59:27;9.80;;;4.90;;
61338;SDS011;47213;52.362;4.606;2023-09-12T18:09:28;10.30;;;5.00;;
61338;SDS011;47213;52.362;4.606;2023-09-12T18:19:29;9.80;;;4.90;;
61338;SDS011;47213;52.362;4.606;2023-09-12T18:24:27;9.80;;;4.90;;
61338;SDS011;47213;52.362;4.606;2023-09-12T18:29:27;9.50;;;4.60;;
61338;SDS011;47213;52.362;4.606;2023-09-12T18:39:28;10.70;;;4.60;;
61338;SDS011;47213;52.362;4.606;2023-09-12T18:44:28;10.70;;;4.60;;
61338;SDS011;47213;52.362;4.606;2023-09-12T18:49:28;10.10;;;4.30;;
61338;SDS011;47213;52.362;4.606;2023-09-12T19:09:28;7.80;;;4.00;;
61338;SDS011;47213;52.362;4.606;2023-09-12T19:14:28;7.80;;;4.00;;
61338;SDS011;47213;52.362;4.606;2023-09-12T19:19:28;8.90;;;3.80;;
61338;SDS011;47213;52.362;4.606;2023-09-12T19:29:28;9.90;;;3.80;;
61338;SDS011;47213;52.362;4.606;2023-09-12T19:34:28;9.90;;;3.80;;
61338;SDS011;47213;52.362;4.606;2023-09-12T19:39:28;7.00;;;3.70;;
61338;SDS011;47213;52.362;4.606;2023-09-12T19:49:28;9.10;;;3.80;;
61338;SDS011;47213;52.362;4.606;2023-09-12T19:59:28;7.90;;;3.90;;
61338;SDS011;47213;52.362;4.606;2023-09-12T20:14:28;8.80;;;3.90;;
61338;SDS011;47213;52.362;4.606;2023-09-12T20:19:28;9.40;;;3.80;;
61338;SDS011;47213;52.362;4.606;2023-09-12T20:29:28;8.00;;;3.80;;
61338;SDS011;47213;52.362;4.606;2023-09-12T20:49:28;7.70;;;3.70;;
61338;SDS011;47213;52.362;4.606;2023-09-12T20:54:28;7.70;;;3.70;;
61338;SDS011;47213;52.362;4.606;2023-09-12T20:59:28;8.60;;;3.50;;
61338;SDS011;47213;52.362;4.606;2023-09-12T21:04:28;8.60;;;3.50;;
61338;SDS011;47213;52.362;4.606;2023-09-12T21:09:28;7.40;;;3.40;;
61338;SDS011;47213;52.362;4.606;2023-09-12T21:19:28;8.20;;;3.40;;
61338;SDS011;47213;52.362;4.606;2023-09-12T21:24:28;8.20;;;3.40;;
61338;SDS011;47213;52.362;4.606;2023-09-12T21:29:28;7.40;;;2.90;;
61338;SDS011;47213;52.362;4.606;2023-09-12T21:34:28;7.40;;;2.90;;
61338;SDS011;47213;52.362;4.606;2023-09-12T21:39:28;7.40;;;2.50;;
61338;SDS011;47213;52.362;4.606;2023-09-12T21:44:28;7.40;;;2.50;;
61338;SDS011;47213;52.362;4.606;2023-09-12T21:49:28;7.60;;;2.70;;
61338;SDS011;47213;52.362;4.606;2023-09-12T21:54:28;7.60;;;2.70;;
61338;SDS011;47213;52.362;4.606;2023-09-12T21:59:28;5.00;;;2.20;;
61338;SDS011;47213;52.362;4.606;2023-09-12T22:04:28;5.00;;;2.20;;
61338;SDS011;47213;52.362;4.606;2023-09-12T22:09:28;5.10;;;2.00;;
61338;SDS011;47213;52.362;4.606;2023-09-12T22:14:28;5.10;;;2.00;;
61338;SDS011;47213;52.362;4.606;2023-09-12T22:19:28;5.80;;;2.30;;
61338;SDS011;47213;52.362;4.606;2023-09-12T22:24:28;5.80;;;2.30;;
61338;SDS011;47213;52.362;4.606;2023-09-12T22:29:28;7.10;;;2.30;;
61338;SDS011;47213;52.362;4.606;2023-09-12T22:39:28;4.80;;;2.30;;
61338;SDS011;47213;52.362;4.606;2023-09-12T22:44:28;4.80;;;2.30;;
61338;SDS011;47213;52.362;4.606;2023-09-12T22:49:28;5.70;;;2.60;;
61338;SDS011;47213;52.362;4.606;2023-09-12T22:59:28;6.20;;;2.40;;
61338;SDS011;47213;52.362;4.606;2023-09-12T23:04:28;6.20;;;2.40;;
61338;SDS011;47213;52.362;4.606;2023-09-12T23:09:28;7.30;;;2.60;;
61338;SDS011;47213;52.362;4.606;2023-09-12T23:14:28;7.30;;;2.60;;
61338;SDS011;47213;52.362;4.606;2023-09-12T23:19:28;5.70;;;2.20;;
61338;SDS011;47213;52.362;4.606;2023-09-12T23:24:28;5.70;;;2.20;;
61338;SDS011;47213;52.362;4.606;2023-09-12T23:29:28;6.00;;;2.30;;
61338;SDS011;47213;52.362;4.606;2023-09-12T23:34:28;6.00;;;2.30;;
61338;SDS011;47213;52.362;4.606;2023-09-12T23:39:28;5.00;;;2.10;;
61338;SDS011;47213;52.362;4.606;2023-09-12T23:49:28;7.00;;;2.40;;
